Shanghai Hongqiao International Airport
ZSSS : now visible

Airfield :











YOU CAN JOIN US ON...

 
LOGIN :

Register | Disclaimer

   EN    FR    IT 

 









Legend :    VFR   Marginal VFR   IFR   Intensive IFR   Very Intensive IFR
Visi :
Ceiling :
>= 8 km
>= 3000ft
5 to 8 km
1000 to 3000 ft
1500m to 5 km
500 to 1000 ft
800 to 1500m
200 to 500 ft
< 800m
< 200 ft
Symbols :   Thunderstorms  Fog  Heavy snow  Heavy precipitations  Wind > 20 kt






- Airport Elevation : 10 ft
- IATA code : SHA


ZSSS - Shanghai Hongqiao International

CURRENT METAR :
  • 190530Z VRB03MPS CAVOK 39/23 Q1005 NOSIG

EXPIRED METARs :
  • 190500Z VRB03MPS CAVOK 38/24 Q1005 BECMG TL0630 26005MPS
  • 190430Z VRB05G10MPS CAVOK 38/23 Q1005 NOSIG
  • 190419Z VRB05MPS CAVOK 38/23 Q1005 NOSIG
  • 190400Z 23004MPS 180V290 CAVOK 38/24 Q1005 NOSIG
  • 190330Z 25004MPS 210V280 CAVOK 38/24 Q1005 NOSIG
  • 190300Z 21005MPS 140V240 CAVOK 37/24 Q1005 NOSIG
  • 190230Z 25005MPS 190V280 CAVOK 37/24 Q1006 NOSIG
  • 190200Z 24004MPS 200V290 CAVOK 37/24 Q1006 NOSIG
  • 190130Z 22003MPS 170V260 CAVOK 36/25 Q1006 NOSIG
  • 190100Z 20003MPS 170V240 CAVOK 35/26 Q1006 NOSIG

TAF TAF ZSSS
Valid from the 19 at 06:00 until the 20 at 12:00 UTC


190302Z 1906/2012 19004MPS 8000 SCT020 TX39/1906Z TX39/2006Z TN30/1921Z
TEMPO 1907/1911 TSRA BKN013 SCT030CB
ZSHA FIR / Asia



MET'MAP, your aeronautical weather chart ! - Copyright ORBIFLY December 2007 - Disclaimer

ORBIFLY MET'MAP TEAM :

Programming & Development : Alexandra Zaïnal
Original concept : Baudouin d'Aumeries
Technical & hardware support : Manuel Goepfert
Assistance : Marc-Olivier Méhu




SOURCES & CREDITS :

   NOAA       Earth
Advisory